sensor_id;sensor_type;location;lat;lon;timestamp;P1;durP1;ratioP1;P2;durP2;ratioP2
40058;SDS011;25763;49.972;8.568;2022-09-27T00:00:59;14.45;;;13.65;;
40058;SDS011;25763;49.972;8.568;2022-09-27T00:03:25;15.43;;;14.50;;
40058;SDS011;25763;49.972;8.568;2022-09-27T00:06:01;16.40;;;15.50;;
40058;SDS011;25763;49.972;8.568;2022-09-27T00:08:33;14.95;;;14.13;;
40058;SDS011;25763;49.972;8.568;2022-09-27T00:11:08;16.27;;;15.38;;
40058;SDS011;25763;49.972;8.568;2022-09-27T00:13:52;14.77;;;13.98;;
40058;SDS011;25763;49.972;8.568;2022-09-27T00:16:19;14.00;;;13.20;;
40058;SDS011;25763;49.972;8.568;2022-09-27T00:18:46;13.38;;;12.57;;
40058;SDS011;25763;49.972;8.568;2022-09-27T00:21:12;13.13;;;12.38;;
40058;SDS011;25763;49.972;8.568;2022-09-27T00:23:38;14.65;;;13.85;;
40058;SDS011;25763;49.972;8.568;2022-09-27T00:26:04;13.43;;;12.63;;
40058;SDS011;25763;49.972;8.568;2022-09-27T00:28:31;13.20;;;12.40;;
40058;SDS011;25763;49.972;8.568;2022-09-27T00:30:57;15.05;;;14.23;;
40058;SDS011;25763;49.972;8.568;2022-09-27T00:33:23;13.38;;;12.57;;
40058;SDS011;25763;49.972;8.568;2022-09-27T00:35:49;13.35;;;12.55;;
40058;SDS011;25763;49.972;8.568;2022-09-27T00:38:14;12.38;;;11.68;;
40058;SDS011;25763;49.972;8.568;2022-09-27T00:40:40;12.57;;;11.88;;
40058;SDS011;25763;49.972;8.568;2022-09-27T00:43:19;12.77;;;12.00;;
40058;SDS011;25763;49.972;8.568;2022-09-27T00:45:57;13.18;;;12.38;;
40058;SDS011;25763;49.972;8.568;2022-09-27T00:48:27;12.55;;;11.85;;
40058;SDS011;25763;49.972;8.568;2022-09-27T00:50:55;12.00;;;11.30;;
40058;SDS011;25763;49.972;8.568;2022-09-27T00:53:29;13.80;;;13.00;;
40058;SDS011;25763;49.972;8.568;2022-09-27T00:55:58;13.15;;;12.35;;
40058;SDS011;25763;49.972;8.568;2022-09-27T00:58:31;12.05;;;11.35;;
40058;SDS011;25763;49.972;8.568;2022-09-27T01:01:02;12.20;;;11.50;;
40058;SDS011;25763;49.972;8.568;2022-09-27T01:06:11;12.30;;;11.57;;
40058;SDS011;25763;49.972;8.568;2022-09-27T01:08:38;11.35;;;10.65;;
40058;SDS011;25763;49.972;8.568;2022-09-27T01:13:48;11.23;;;10.52;;
40058;SDS011;25763;49.972;8.568;2022-09-27T01:16:34;11.30;;;10.60;;
40058;SDS011;25763;49.972;8.568;2022-09-27T01:19:05;10.07;;;9.48;;
40058;SDS011;25763;49.972;8.568;2022-09-27T01:21:51;10.10;;;9.50;;
40058;SDS011;25763;49.972;8.568;2022-09-27T01:27:20;9.45;;;8.85;;
40058;SDS011;25763;49.972;8.568;2022-09-27T01:32:59;10.15;;;9.55;;
40058;SDS011;25763;49.972;8.568;2022-09-27T01:41:16;9.50;;;8.90;;
40058;SDS011;25763;49.972;8.568;2022-09-27T01:43:47;9.00;;;8.40;;
40058;SDS011;25763;49.972;8.568;2022-09-27T01:46:26;10.30;;;9.68;;
40058;SDS011;25763;49.972;8.568;2022-09-27T01:48:57;9.73;;;9.13;;
40058;SDS011;25763;49.972;8.568;2022-09-27T01:51:27;9.57;;;8.98;;
40058;SDS011;25763;49.972;8.568;2022-09-27T01:54:11;9.90;;;9.30;;
40058;SDS011;25763;49.972;8.568;2022-09-27T01:56:42;9.90;;;9.30;;
40058;SDS011;25763;49.972;8.568;2022-09-27T02:01:44;10.77;;;10.05;;
40058;SDS011;25763;49.972;8.568;2022-09-27T02:04:12;10.40;;;9.70;;
40058;SDS011;25763;49.972;8.568;2022-09-27T02:06:45;10.32;;;9.73;;
40058;SDS011;25763;49.972;8.568;2022-09-27T02:09:14;9.65;;;9.05;;
40058;SDS011;25763;49.972;8.568;2022-09-27T02:11:44;8.60;;;8.10;;
40058;SDS011;25763;49.972;8.568;2022-09-27T02:20:10;10.07;;;9.27;;
40058;SDS011;25763;49.972;8.568;2022-09-27T02:22:43;8.98;;;8.38;;
40058;SDS011;25763;49.972;8.568;2022-09-27T02:25:20;9.65;;;9.05;;
40058;SDS011;25763;49.972;8.568;2022-09-27T02:30:34;8.98;;;8.38;;
40058;SDS011;25763;49.972;8.568;2022-09-27T02:33:00;8.40;;;7.90;;
40058;SDS011;25763;49.972;8.568;2022-09-27T02:35:26;8.40;;;7.90;;
40058;SDS011;25763;49.972;8.568;2022-09-27T02:37:55;7.88;;;7.38;;
40058;SDS011;25763;49.972;8.568;2022-09-27T02:40:22;7.97;;;7.43;;
40058;SDS011;25763;49.972;8.568;2022-09-27T02:42:48;8.00;;;7.50;;
40058;SDS011;25763;49.972;8.568;2022-09-27T02:45:13;9.60;;;9.00;;
40058;SDS011;25763;49.972;8.568;2022-09-27T02:47:49;9.45;;;8.85;;
40058;SDS011;25763;49.972;8.568;2022-09-27T02:50:27;8.65;;;8.05;;
40058;SDS011;25763;49.972;8.568;2022-09-27T02:55:45;9.88;;;9.27;;
40058;SDS011;25763;49.972;8.568;2022-09-27T02:58:29;9.45;;;8.85;;
40058;SDS011;25763;49.972;8.568;2022-09-27T03:01:10;9.38;;;8.77;;
40058;SDS011;25763;49.972;8.568;2022-09-27T03:03:45;10.63;;;9.93;;
40058;SDS011;25763;49.972;8.568;2022-09-27T03:06:19;9.95;;;9.30;;
40058;SDS011;25763;49.972;8.568;2022-09-27T03:08:47;9.70;;;8.65;;
40058;SDS011;25763;49.972;8.568;2022-09-27T03:11:13;8.48;;;7.97;;
40058;SDS011;25763;49.972;8.568;2022-09-27T03:13:39;8.25;;;7.75;;
40058;SDS011;25763;49.972;8.568;2022-09-27T03:16:05;8.27;;;7.78;;
40058;SDS011;25763;49.972;8.568;2022-09-27T03:18:31;7.85;;;7.35;;
40058;SDS011;25763;49.972;8.568;2022-09-27T03:20:57;7.50;;;7.00;;
40058;SDS011;25763;49.972;8.568;2022-09-27T03:23:22;7.55;;;7.05;;
40058;SDS011;25763;49.972;8.568;2022-09-27T03:25:47;7.38;;;6.88;;
40058;SDS011;25763;49.972;8.568;2022-09-27T03:28:13;7.90;;;7.40;;
40058;SDS011;25763;49.972;8.568;2022-09-27T03:30:39;7.82;;;7.32;;
40058;SDS011;25763;49.972;8.568;2022-09-27T03:33:06;7.60;;;7.10;;
40058;SDS011;25763;49.972;8.568;2022-09-27T03:35:33;7.80;;;7.30;;
40058;SDS011;25763;49.972;8.568;2022-09-27T03:37:58;7.72;;;7.22;;
40058;SDS011;25763;49.972;8.568;2022-09-27T03:40:23;7.55;;;7.05;;
40058;SDS011;25763;49.972;8.568;2022-09-27T03:42:49;21.15;;;7.10;;
40058;SDS011;25763;49.972;8.568;2022-09-27T03:45:15;7.65;;;7.15;;
40058;SDS011;25763;49.972;8.568;2022-09-27T03:47:41;7.15;;;6.65;;
40058;SDS011;25763;49.972;8.568;2022-09-27T03:50:07;7.18;;;6.68;;
40058;SDS011;25763;49.972;8.568;2022-09-27T03:52:33;7.18;;;6.68;;
40058;SDS011;25763;49.972;8.568;2022-09-27T03:54:59;7.65;;;7.15;;
40058;SDS011;25763;49.972;8.568;2022-09-27T03:57:24;8.43;;;7.93;;
40058;SDS011;25763;49.972;8.568;2022-09-27T03:59:49;8.20;;;7.70;;
40058;SDS011;25763;49.972;8.568;2022-09-27T04:02:15;8.05;;;7.55;;
40058;SDS011;25763;49.972;8.568;2022-09-27T04:04:40;8.07;;;7.57;;
40058;SDS011;25763;49.972;8.568;2022-09-27T04:07:07;8.15;;;7.65;;
40058;SDS011;25763;49.972;8.568;2022-09-27T04:09:34;7.57;;;7.07;;
40058;SDS011;25763;49.972;8.568;2022-09-27T04:11:59;7.63;;;7.13;;
40058;SDS011;25763;49.972;8.568;2022-09-27T04:14:25;7.88;;;7.38;;
40058;SDS011;25763;49.972;8.568;2022-09-27T04:16:50;7.85;;;7.35;;
40058;SDS011;25763;49.972;8.568;2022-09-27T04:19:16;7.63;;;7.13;;
40058;SDS011;25763;49.972;8.568;2022-09-27T04:21:41;8.25;;;7.75;;
40058;SDS011;25763;49.972;8.568;2022-09-27T04:24:06;8.02;;;7.53;;
40058;SDS011;25763;49.972;8.568;2022-09-27T04:26:32;7.88;;;7.38;;
40058;SDS011;25763;49.972;8.568;2022-09-27T04:28:57;8.35;;;7.85;;
40058;SDS011;25763;49.972;8.568;2022-09-27T04:31:23;8.15;;;7.65;;
40058;SDS011;25763;49.972;8.568;2022-09-27T04:33:48;7.60;;;7.10;;
40058;SDS011;25763;49.972;8.568;2022-09-27T04:36:14;7.75;;;7.25;;
40058;SDS011;25763;49.972;8.568;2022-09-27T04:38:55;8.02;;;7.53;;
40058;SDS011;25763;49.972;8.568;2022-09-27T04:41:21;7.63;;;7.13;;
40058;SDS011;25763;49.972;8.568;2022-09-27T04:43:48;8.55;;;8.05;;
40058;SDS011;25763;49.972;8.568;2022-09-27T04:46:14;7.53;;;7.03;;
40058;SDS011;25763;49.972;8.568;2022-09-27T04:48:40;7.57;;;7.07;;
40058;SDS011;25763;49.972;8.568;2022-09-27T04:51:05;6.97;;;6.47;;
40058;SDS011;25763;49.972;8.568;2022-09-27T04:53:31;8.43;;;7.82;;
40058;SDS011;25763;49.972;8.568;2022-09-27T04:55:56;7.75;;;7.25;;
40058;SDS011;25763;49.972;8.568;2022-09-27T04:58:22;7.15;;;6.65;;
40058;SDS011;25763;49.972;8.568;2022-09-27T05:00:48;7.68;;;7.18;;
40058;SDS011;25763;49.972;8.568;2022-09-27T05:03:16;7.88;;;7.38;;
40058;SDS011;25763;49.972;8.568;2022-09-27T05:05:43;7.80;;;7.30;;
40058;SDS011;25763;49.972;8.568;2022-09-27T05:08:08;7.70;;;7.20;;
40058;SDS011;25763;49.972;8.568;2022-09-27T05:10:34;7.53;;;7.03;;
40058;SDS011;25763;49.972;8.568;2022-09-27T05:13:00;7.70;;;7.20;;
40058;SDS011;25763;49.972;8.568;2022-09-27T05:15:25;8.20;;;7.60;;
40058;SDS011;25763;49.972;8.568;2022-09-27T05:17:50;7.50;;;7.00;;
40058;SDS011;25763;49.972;8.568;2022-09-27T05:20:16;8.05;;;7.55;;
40058;SDS011;25763;49.972;8.568;2022-09-27T05:22:43;7.80;;;7.30;;
40058;SDS011;25763;49.972;8.568;2022-09-27T05:25:08;7.70;;;7.20;;
40058;SDS011;25763;49.972;8.568;2022-09-27T05:27:34;7.60;;;7.10;;
40058;SDS011;25763;49.972;8.568;2022-09-27T05:29:59;8.20;;;7.70;;
40058;SDS011;25763;49.972;8.568;2022-09-27T05:32:26;7.72;;;7.22;;
40058;SDS011;25763;49.972;8.568;2022-09-27T05:34:52;8.23;;;7.68;;
40058;SDS011;25763;49.972;8.568;2022-09-27T05:37:18;8.32;;;7.82;;
40058;SDS011;25763;49.972;8.568;2022-09-27T05:39:44;7.80;;;7.30;;
40058;SDS011;25763;49.972;8.568;2022-09-27T05:42:10;7.15;;;6.65;;
40058;SDS011;25763;49.972;8.568;2022-09-27T05:44:36;7.35;;;6.85;;
40058;SDS011;25763;49.972;8.568;2022-09-27T05:47:03;8.63;;;8.05;;
40058;SDS011;25763;49.972;8.568;2022-09-27T05:49:29;7.70;;;7.05;;
40058;SDS011;25763;49.972;8.568;2022-09-27T05:51:55;8.10;;;7.60;;
40058;SDS011;25763;49.972;8.568;2022-09-27T05:54:20;7.57;;;7.07;;
40058;SDS011;25763;49.972;8.568;2022-09-27T05:56:45;7.43;;;6.93;;
40058;SDS011;25763;49.972;8.568;2022-09-27T05:59:11;7.70;;;7.20;;
40058;SDS011;25763;49.972;8.568;2022-09-27T06:01:36;8.35;;;7.85;;
40058;SDS011;25763;49.972;8.568;2022-09-27T06:04:02;7.95;;;7.45;;
40058;SDS011;25763;49.972;8.568;2022-09-27T06:06:28;7.45;;;6.95;;
40058;SDS011;25763;49.972;8.568;2022-09-27T06:08:54;7.47;;;6.97;;
40058;SDS011;25763;49.972;8.568;2022-09-27T06:11:19;8.48;;;7.97;;
40058;SDS011;25763;49.972;8.568;2022-09-27T06:13:44;7.68;;;7.07;;
40058;SDS011;25763;49.972;8.568;2022-09-27T06:16:10;11.98;;;7.43;;
40058;SDS011;25763;49.972;8.568;2022-09-27T06:18:35;7.88;;;7.38;;
40058;SDS011;25763;49.972;8.568;2022-09-27T06:21:02;7.38;;;6.88;;
40058;SDS011;25763;49.972;8.568;2022-09-27T06:23:29;8.70;;;7.93;;
40058;SDS011;25763;49.972;8.568;2022-09-27T06:25:59;7.78;;;7.28;;
40058;SDS011;25763;49.972;8.568;2022-09-27T06:28:29;8.07;;;7.57;;
40058;SDS011;25763;49.972;8.568;2022-09-27T06:30:55;8.32;;;7.82;;
40058;SDS011;25763;49.972;8.568;2022-09-27T06:33:21;8.90;;;8.30;;
40058;SDS011;25763;49.972;8.568;2022-09-27T06:35:46;8.77;;;8.25;;
40058;SDS011;25763;49.972;8.568;2022-09-27T06:38:14;9.02;;;8.43;;
40058;SDS011;25763;49.972;8.568;2022-09-27T06:40:41;12.10;;;10.65;;
40058;SDS011;25763;49.972;8.568;2022-09-27T06:43:12;8.82;;;8.25;;
40058;SDS011;25763;49.972;8.568;2022-09-27T06:45:38;8.95;;;8.35;;
40058;SDS011;25763;49.972;8.568;2022-09-27T06:48:04;9.70;;;9.10;;
40058;SDS011;25763;49.972;8.568;2022-09-27T06:50:32;9.48;;;8.88;;
40058;SDS011;25763;49.972;8.568;2022-09-27T06:52:59;9.00;;;8.43;;
40058;SDS011;25763;49.972;8.568;2022-09-27T06:55:25;10.50;;;9.90;;
40058;SDS011;25763;49.972;8.568;2022-09-27T06:57:54;10.02;;;9.43;;
40058;SDS011;25763;49.972;8.568;2022-09-27T07:00:38;10.10;;;9.50;;
40058;SDS011;25763;49.972;8.568;2022-09-27T07:03:04;10.48;;;9.80;;
40058;SDS011;25763;49.972;8.568;2022-09-27T07:05:29;10.45;;;9.85;;
40058;SDS011;25763;49.972;8.568;2022-09-27T07:07:55;10.48;;;9.85;;
40058;SDS011;25763;49.972;8.568;2022-09-27T07:10:22;10.55;;;9.95;;
40058;SDS011;25763;49.972;8.568;2022-09-27T07:12:49;11.60;;;10.90;;
40058;SDS011;25763;49.972;8.568;2022-09-27T07:15:16;11.52;;;10.82;;
40058;SDS011;25763;49.972;8.568;2022-09-27T07:17:42;11.35;;;10.65;;
40058;SDS011;25763;49.972;8.568;2022-09-27T07:20:07;11.90;;;11.20;;
40058;SDS011;25763;49.972;8.568;2022-09-27T07:22:39;11.18;;;10.48;;
40058;SDS011;25763;49.972;8.568;2022-09-27T07:25:07;11.43;;;10.73;;
40058;SDS011;25763;49.972;8.568;2022-09-27T07:27:33;11.65;;;10.95;;
40058;SDS011;25763;49.972;8.568;2022-09-27T07:29:59;11.30;;;10.60;;
40058;SDS011;25763;49.972;8.568;2022-09-27T07:32:25;10.35;;;9.75;;
40058;SDS011;25763;49.972;8.568;2022-09-27T07:34:50;11.52;;;10.82;;
40058;SDS011;25763;49.972;8.568;2022-09-27T07:37:15;10.77;;;10.07;;
40058;SDS011;25763;49.972;8.568;2022-09-27T07:39:41;9.98;;;9.38;;
40058;SDS011;25763;49.972;8.568;2022-09-27T07:42:07;9.75;;;9.15;;
40058;SDS011;25763;49.972;8.568;2022-09-27T07:44:33;7.22;;;6.72;;
40058;SDS011;25763;49.972;8.568;2022-09-27T07:46:58;9.18;;;8.57;;
40058;SDS011;25763;49.972;8.568;2022-09-27T07:49:23;7.80;;;7.30;;
40058;SDS011;25763;49.972;8.568;2022-09-27T07:51:49;6.80;;;6.30;;
40058;SDS011;25763;49.972;8.568;2022-09-27T07:54:15;6.53;;;6.10;;
40058;SDS011;25763;49.972;8.568;2022-09-27T07:56:40;5.88;;;5.47;;
40058;SDS011;25763;49.972;8.568;2022-09-27T07:59:06;7.07;;;6.57;;
40058;SDS011;25763;49.972;8.568;2022-09-27T08:01:31;6.35;;;5.95;;
40058;SDS011;25763;49.972;8.568;2022-09-27T08:03:58;6.65;;;6.22;;
40058;SDS011;25763;49.972;8.568;2022-09-27T08:06:23;6.63;;;6.20;;
40058;SDS011;25763;49.972;8.568;2022-09-27T08:08:49;6.57;;;6.18;;
40058;SDS011;25763;49.972;8.568;2022-09-27T08:11:15;6.82;;;6.32;;
40058;SDS011;25763;49.972;8.568;2022-09-27T08:13:41;7.30;;;6.80;;
40058;SDS011;25763;49.972;8.568;2022-09-27T08:16:07;7.90;;;7.40;;
40058;SDS011;25763;49.972;8.568;2022-09-27T08:18:32;7.75;;;7.15;;
40058;SDS011;25763;49.972;8.568;2022-09-27T08:20:58;7.45;;;6.95;;
40058;SDS011;25763;49.972;8.568;2022-09-27T08:23:24;7.32;;;6.82;;
40058;SDS011;25763;49.972;8.568;2022-09-27T08:25:51;5.82;;;5.43;;
40058;SDS011;25763;49.972;8.568;2022-09-27T08:28:17;6.65;;;6.20;;
40058;SDS011;25763;49.972;8.568;2022-09-27T08:30:42;7.10;;;6.60;;
40058;SDS011;25763;49.972;8.568;2022-09-27T08:33:08;6.15;;;5.75;;
40058;SDS011;25763;49.972;8.568;2022-09-27T08:35:33;5.90;;;5.50;;
40058;SDS011;25763;49.972;8.568;2022-09-27T08:37:59;7.10;;;6.60;;
40058;SDS011;25763;49.972;8.568;2022-09-27T08:41:11;6.82;;;6.32;;
40058;SDS011;25763;49.972;8.568;2022-09-27T08:43:19;6.20;;;5.80;;
40058;SDS011;25763;49.972;8.568;2022-09-27T08:46:02;6.13;;;5.72;;
40058;SDS011;25763;49.972;8.568;2022-09-27T08:48:31;5.75;;;5.35;;
40058;SDS011;25763;49.972;8.568;2022-09-27T08:51:00;5.25;;;4.85;;
40058;SDS011;25763;49.972;8.568;2022-09-27T08:53:30;5.93;;;5.53;;
40058;SDS011;25763;49.972;8.568;2022-09-27T08:56:01;5.68;;;5.28;;
40058;SDS011;25763;49.972;8.568;2022-09-27T08:58:29;5.32;;;4.93;;
40058;SDS011;25763;49.972;8.568;2022-09-27T09:01:10;5.70;;;5.30;;
40058;SDS011;25763;49.972;8.568;2022-09-27T09:03:51;6.00;;;5.60;;
40058;SDS011;25763;49.972;8.568;2022-09-27T09:20:18;8.05;;;7.55;;
40058;SDS011;25763;49.972;8.568;2022-09-27T09:31:40;6.47;;;6.07;;
40058;SDS011;25763;49.972;8.568;2022-09-27T09:36:58;6.10;;;5.70;;
40058;SDS011;25763;49.972;8.568;2022-09-27T09:42:28;5.97;;;5.57;;
40058;SDS011;25763;49.972;8.568;2022-09-27T09:47:39;6.18;;;5.78;;
40058;SDS011;25763;49.972;8.568;2022-09-27T09:52:56;6.72;;;6.22;;
40058;SDS011;25763;49.972;8.568;2022-09-27T09:55:32;6.38;;;5.95;;
40058;SDS011;25763;49.972;8.568;2022-09-27T10:00:43;6.57;;;6.15;;
40058;SDS011;25763;49.972;8.568;2022-09-27T10:03:11;7.30;;;6.80;;
40058;SDS011;25763;49.972;8.568;2022-09-27T10:05:36;7.57;;;7.07;;
40058;SDS011;25763;49.972;8.568;2022-09-27T10:08:02;6.70;;;6.20;;
40058;SDS011;25763;49.972;8.568;2022-09-27T10:10:31;7.32;;;6.82;;
40058;SDS011;25763;49.972;8.568;2022-09-27T10:12:58;7.78;;;7.28;;
40058;SDS011;25763;49.972;8.568;2022-09-27T10:15:27;6.97;;;6.47;;
40058;SDS011;25763;49.972;8.568;2022-09-27T10:17:57;7.32;;;6.82;;
40058;SDS011;25763;49.972;8.568;2022-09-27T10:20:37;6.60;;;6.15;;
40058;SDS011;25763;49.972;8.568;2022-09-27T10:23:16;7.10;;;6.60;;
40058;SDS011;25763;49.972;8.568;2022-09-27T10:25:46;6.43;;;6.03;;
40058;SDS011;25763;49.972;8.568;2022-09-27T10:31:10;6.10;;;5.70;;
40058;SDS011;25763;49.972;8.568;2022-09-27T10:33:39;6.32;;;5.93;;
40058;SDS011;25763;49.972;8.568;2022-09-27T10:36:24;6.65;;;6.20;;
40058;SDS011;25763;49.972;8.568;2022-09-27T10:38:54;7.22;;;6.72;;
40058;SDS011;25763;49.972;8.568;2022-09-27T10:41:32;7.28;;;6.78;;
40058;SDS011;25763;49.972;8.568;2022-09-27T10:46:43;7.85;;;7.07;;
40058;SDS011;25763;49.972;8.568;2022-09-27T10:51:58;7.03;;;6.53;;
40058;SDS011;25763;49.972;8.568;2022-09-27T10:54:26;7.28;;;6.78;;
40058;SDS011;25763;49.972;8.568;2022-09-27T10:57:36;6.55;;;6.15;;
40058;SDS011;25763;49.972;8.568;2022-09-27T10:59:50;6.00;;;5.60;;
40058;SDS011;25763;49.972;8.568;2022-09-27T11:02:20;6.57;;;6.15;;
40058;SDS011;25763;49.972;8.568;2022-09-27T11:05:07;8.40;;;7.90;;
40058;SDS011;25763;49.972;8.568;2022-09-27T11:07:56;7.18;;;6.68;;
40058;SDS011;25763;49.972;8.568;2022-09-27T11:10:42;7.38;;;6.88;;
40058;SDS011;25763;49.972;8.568;2022-09-27T11:13:11;12.30;;;11.60;;
40058;SDS011;25763;49.972;8.568;2022-09-27T11:15:47;10.27;;;9.63;;
40058;SDS011;25763;49.972;8.568;2022-09-27T11:18:40;11.02;;;10.38;;
40058;SDS011;25763;49.972;8.568;2022-09-27T11:26:39;9.65;;;9.05;;
40058;SDS011;25763;49.972;8.568;2022-09-27T11:48:58;9.85;;;9.02;;
40058;SDS011;25763;49.972;8.568;2022-09-27T11:57:54;12.98;;;12.18;;
40058;SDS011;25763;49.972;8.568;2022-09-27T12:09:11;8.07;;;7.57;;
40058;SDS011;25763;49.972;8.568;2022-09-27T12:11:45;6.93;;;6.43;;
40058;SDS011;25763;49.972;8.568;2022-09-27T12:14:23;7.45;;;6.95;;
40058;SDS011;25763;49.972;8.568;2022-09-27T12:16:57;6.90;;;6.40;;
40058;SDS011;25763;49.972;8.568;2022-09-27T12:19:25;8.10;;;7.60;;
40058;SDS011;25763;49.972;8.568;2022-09-27T12:21:55;9.30;;;8.70;;
40058;SDS011;25763;49.972;8.568;2022-09-27T12:26:54;8.45;;;7.93;;
40058;SDS011;25763;49.972;8.568;2022-09-27T12:29:32;8.05;;;7.55;;
40058;SDS011;25763;49.972;8.568;2022-09-27T12:32:16;7.40;;;6.90;;
40058;SDS011;25763;49.972;8.568;2022-09-27T12:34:49;7.43;;;6.93;;
40058;SDS011;25763;49.972;8.568;2022-09-27T12:42:52;7.18;;;6.68;;
40058;SDS011;25763;49.972;8.568;2022-09-27T12:45:36;6.82;;;6.32;;
40058;SDS011;25763;49.972;8.568;2022-09-27T12:48:39;7.07;;;6.57;;
40058;SDS011;25763;49.972;8.568;2022-09-27T12:51:21;6.63;;;6.15;;
40058;SDS011;25763;49.972;8.568;2022-09-27T12:54:02;7.15;;;6.55;;
40058;SDS011;25763;49.972;8.568;2022-09-27T13:02:14;7.40;;;6.90;;
40058;SDS011;25763;49.972;8.568;2022-09-27T13:07:49;7.30;;;6.80;;
40058;SDS011;25763;49.972;8.568;2022-09-27T13:10:39;6.97;;;6.47;;
40058;SDS011;25763;49.972;8.568;2022-09-27T13:13:09;6.32;;;5.93;;
40058;SDS011;25763;49.972;8.568;2022-09-27T13:15:41;6.20;;;5.80;;
40058;SDS011;25763;49.972;8.568;2022-09-27T13:21:03;5.80;;;5.40;;
40058;SDS011;25763;49.972;8.568;2022-09-27T13:33:20;6.15;;;5.75;;
40058;SDS011;25763;49.972;8.568;2022-09-27T13:36:16;6.00;;;5.60;;
40058;SDS011;25763;49.972;8.568;2022-09-27T13:44:23;6.15;;;5.75;;
40058;SDS011;25763;49.972;8.568;2022-09-27T13:50:03;6.82;;;6.32;;
40058;SDS011;25763;49.972;8.568;2022-09-27T13:52:42;7.03;;;6.53;;
40058;SDS011;25763;49.972;8.568;2022-09-27T13:58:10;5.90;;;5.50;;
40058;SDS011;25763;49.972;8.568;2022-09-27T14:00:55;6.15;;;5.75;;
40058;SDS011;25763;49.972;8.568;2022-09-27T14:03:29;7.03;;;6.53;;
40058;SDS011;25763;49.972;8.568;2022-09-27T14:06:00;6.50;;;6.07;;
40058;SDS011;25763;49.972;8.568;2022-09-27T14:08:34;5.70;;;5.30;;
40058;SDS011;25763;49.972;8.568;2022-09-27T14:11:11;6.00;;;5.60;;
40058;SDS011;25763;49.972;8.568;2022-09-27T14:13:39;5.80;;;5.40;;
40058;SDS011;25763;49.972;8.568;2022-09-27T14:16:07;6.00;;;5.60;;
40058;SDS011;25763;49.972;8.568;2022-09-27T14:18:34;6.50;;;6.07;;
40058;SDS011;25763;49.972;8.568;2022-09-27T14:24:23;5.90;;;5.50;;
40058;SDS011;25763;49.972;8.568;2022-09-27T14:27:08;6.38;;;5.97;;
40058;SDS011;25763;49.972;8.568;2022-09-27T14:29:38;6.00;;;5.60;;
40058;SDS011;25763;49.972;8.568;2022-09-27T14:32:11;6.32;;;5.93;;
40058;SDS011;25763;49.972;8.568;2022-09-27T14:34:38;6.68;;;6.20;;
40058;SDS011;25763;49.972;8.568;2022-09-27T14:37:04;5.75;;;5.35;;
40058;SDS011;25763;49.972;8.568;2022-09-27T14:39:58;6.10;;;5.70;;
40058;SDS011;25763;49.972;8.568;2022-09-27T14:42:30;6.07;;;5.68;;
40058;SDS011;25763;49.972;8.568;2022-09-27T14:45:02;6.60;;;6.15;;
40058;SDS011;25763;49.972;8.568;2022-09-27T14:47:31;6.28;;;5.88;;
40058;SDS011;25763;49.972;8.568;2022-09-27T14:49:58;8.18;;;7.65;;
40058;SDS011;25763;49.972;8.568;2022-09-27T14:52:37;6.30;;;5.85;;
40058;SDS011;25763;49.972;8.568;2022-09-27T14:55:16;6.78;;;6.28;;
40058;SDS011;25763;49.972;8.568;2022-09-27T14:57:48;5.82;;;5.43;;
40058;SDS011;25763;49.972;8.568;2022-09-27T15:00:24;5.88;;;5.47;;
40058;SDS011;25763;49.972;8.568;2022-09-27T15:02:56;5.97;;;5.57;;
40058;SDS011;25763;49.972;8.568;2022-09-27T15:05:27;7.00;;;6.40;;
40058;SDS011;25763;49.972;8.568;2022-09-27T15:07:55;6.95;;;6.45;;
40058;SDS011;25763;49.972;8.568;2022-09-27T15:10:22;6.13;;;5.72;;
40058;SDS011;25763;49.972;8.568;2022-09-27T15:12:52;5.93;;;5.53;;
40058;SDS011;25763;49.972;8.568;2022-09-27T15:15:22;18.07;;;16.23;;
40058;SDS011;25763;49.972;8.568;2022-09-27T15:17:50;16.17;;;14.93;;
40058;SDS011;25763;49.972;8.568;2022-09-27T15:20:28;9.43;;;8.73;;
40058;SDS011;25763;49.972;8.568;2022-09-27T15:22:56;10.60;;;9.75;;
40058;SDS011;25763;49.972;8.568;2022-09-27T15:28:11;43.13;;;38.83;;
40058;SDS011;25763;49.972;8.568;2022-09-27T15:30:52;15.80;;;14.32;;
40058;SDS011;25763;49.972;8.568;2022-09-27T15:33:25;10.18;;;9.27;;
40058;SDS011;25763;49.972;8.568;2022-09-27T15:35:54;8.25;;;7.65;;
40058;SDS011;25763;49.972;8.568;2022-09-27T15:45:54;7.80;;;7.10;;
40058;SDS011;25763;49.972;8.568;2022-09-27T15:48:21;7.30;;;6.70;;
40058;SDS011;25763;49.972;8.568;2022-09-27T15:50:47;6.45;;;5.95;;
40058;SDS011;25763;49.972;8.568;2022-09-27T15:53:58;6.40;;;5.90;;
40058;SDS011;25763;49.972;8.568;2022-09-27T15:56:02;8.98;;;5.75;;
40058;SDS011;25763;49.972;8.568;2022-09-27T15:58:32;6.40;;;5.90;;
40058;SDS011;25763;49.972;8.568;2022-09-27T16:01:03;7.20;;;6.70;;
40058;SDS011;25763;49.972;8.568;2022-09-27T16:03:32;6.35;;;5.88;;
40058;SDS011;25763;49.972;8.568;2022-09-27T16:05:58;6.10;;;5.70;;
40058;SDS011;25763;49.972;8.568;2022-09-27T16:08:26;6.97;;;6.47;;
40058;SDS011;25763;49.972;8.568;2022-09-27T16:10:53;6.82;;;6.32;;
40058;SDS011;25763;49.972;8.568;2022-09-27T16:13:21;7.40;;;6.70;;
40058;SDS011;25763;49.972;8.568;2022-09-27T16:15:47;6.32;;;5.82;;
40058;SDS011;25763;49.972;8.568;2022-09-27T16:18:12;6.22;;;5.72;;
40058;SDS011;25763;49.972;8.568;2022-09-27T16:20:38;7.50;;;6.93;;
40058;SDS011;25763;49.972;8.568;2022-09-27T16:23:05;6.28;;;5.88;;
40058;SDS011;25763;49.972;8.568;2022-09-27T16:25:30;6.88;;;6.25;;
40058;SDS011;25763;49.972;8.568;2022-09-27T16:27:59;6.43;;;5.93;;
40058;SDS011;25763;49.972;8.568;2022-09-27T16:30:25;6.63;;;6.13;;
40058;SDS011;25763;49.972;8.568;2022-09-27T16:32:51;6.10;;;5.60;;
40058;SDS011;25763;49.972;8.568;2022-09-27T16:35:18;7.35;;;6.85;;
40058;SDS011;25763;49.972;8.568;2022-09-27T16:37:44;6.40;;;5.90;;
40058;SDS011;25763;49.972;8.568;2022-09-27T16:40:10;6.60;;;6.10;;
40058;SDS011;25763;49.972;8.568;2022-09-27T16:42:37;5.80;;;5.40;;
40058;SDS011;25763;49.972;8.568;2022-09-27T16:45:03;5.88;;;5.47;;
40058;SDS011;25763;49.972;8.568;2022-09-27T16:47:31;6.15;;;5.75;;
40058;SDS011;25763;49.972;8.568;2022-09-27T16:49:57;6.10;;;5.70;;
40058;SDS011;25763;49.972;8.568;2022-09-27T16:52:41;6.85;;;6.35;;
40058;SDS011;25763;49.972;8.568;2022-09-27T16:55:11;5.80;;;5.40;;
40058;SDS011;25763;49.972;8.568;2022-09-27T16:57:37;5.75;;;5.35;;
40058;SDS011;25763;49.972;8.568;2022-09-27T17:00:03;5.90;;;5.50;;
40058;SDS011;25763;49.972;8.568;2022-09-27T17:02:30;6.00;;;5.60;;
40058;SDS011;25763;49.972;8.568;2022-09-27T17:04:56;13.82;;;10.77;;
40058;SDS011;25763;49.972;8.568;2022-09-27T17:07:22;7.40;;;6.90;;
40058;SDS011;25763;49.972;8.568;2022-09-27T17:09:47;7.13;;;6.53;;
40058;SDS011;25763;49.972;8.568;2022-09-27T17:12:13;6.97;;;6.47;;
40058;SDS011;25763;49.972;8.568;2022-09-27T17:14:38;7.10;;;6.60;;
40058;SDS011;25763;49.972;8.568;2022-09-27T17:17:04;6.85;;;6.35;;
40058;SDS011;25763;49.972;8.568;2022-09-27T17:19:30;6.47;;;5.97;;
40058;SDS011;25763;49.972;8.568;2022-09-27T17:21:56;7.20;;;6.70;;
40058;SDS011;25763;49.972;8.568;2022-09-27T17:24:22;7.40;;;6.90;;
40058;SDS011;25763;49.972;8.568;2022-09-27T17:26:48;6.40;;;6.00;;
40058;SDS011;25763;49.972;8.568;2022-09-27T17:29:15;6.80;;;6.30;;
40058;SDS011;25763;49.972;8.568;2022-09-27T17:31:40;5.85;;;5.45;;
40058;SDS011;25763;49.972;8.568;2022-09-27T17:34:07;6.10;;;5.70;;
40058;SDS011;25763;49.972;8.568;2022-09-27T17:36:37;7.22;;;6.72;;
40058;SDS011;25763;49.972;8.568;2022-09-27T17:39:06;7.68;;;7.07;;
40058;SDS011;25763;49.972;8.568;2022-09-27T17:41:35;6.78;;;6.28;;
40058;SDS011;25763;49.972;8.568;2022-09-27T17:44:02;6.10;;;5.70;;
40058;SDS011;25763;49.972;8.568;2022-09-27T17:46:35;6.38;;;5.97;;
40058;SDS011;25763;49.972;8.568;2022-09-27T17:49:01;7.25;;;5.90;;